sensor_id;sensor_type;location;lat;lon;timestamp;pressure;altitude;pressure_sealevel;temperature;humidity
50125;BME280;36023;48.670;6.184;2023-04-08T00:02:19;99389.69;;;16.92;45.43
50125;BME280;36023;48.670;6.184;2023-04-08T00:04:44;99388.78;;;16.93;45.40
50125;BME280;36023;48.670;6.184;2023-04-08T00:07:11;99386.22;;;16.92;45.39
50125;BME280;36023;48.670;6.184;2023-04-08T00:09:37;99386.22;;;16.92;45.56
50125;BME280;36023;48.670;6.184;2023-04-08T00:12:05;99389.75;;;16.91;45.52
50125;BME280;36023;48.670;6.184;2023-04-08T00:14:31;99389.75;;;16.91;45.69
50125;BME280;36023;48.670;6.184;2023-04-08T00:16:56;99392.38;;;16.91;45.63
50125;BME280;36023;48.670;6.184;2023-04-08T00:19:22;99388.06;;;16.90;45.64
50125;BME280;36023;48.670;6.184;2023-04-08T00:21:47;99392.44;;;16.89;45.46
50125;BME280;36023;48.670;6.184;2023-04-08T00:24:13;99389.88;;;16.88;45.50
50125;BME280;36023;48.670;6.184;2023-04-08T00:26:39;99391.59;;;16.89;45.38
50125;BME280;36023;48.670;6.184;2023-04-08T00:29:05;99388.16;;;16.87;45.14
50125;BME280;36023;48.670;6.184;2023-04-08T00:31:31;99382.94;;;16.87;45.38
50125;BME280;36023;48.670;6.184;2023-04-08T00:33:57;99382.94;;;16.87;45.23
50125;BME280;36023;48.670;6.184;2023-04-08T00:36:23;99387.31;;;16.86;45.25
50125;BME280;36023;48.670;6.184;2023-04-08T00:38:51;99391.69;;;16.86;45.38
50125;BME280;36023;48.670;6.184;2023-04-08T00:41:17;99391.69;;;16.86;45.15
50125;BME280;36023;48.670;6.184;2023-04-08T00:43:43;99388.25;;;16.85;45.35
50125;BME280;36023;48.670;6.184;2023-04-08T00:46:09;99391.69;;;16.86;45.26
50125;BME280;36023;48.670;6.184;2023-04-08T00:48:35;99390.00;;;16.85;45.35
50125;BME280;36023;48.670;6.184;2023-04-08T00:51:04;99394.38;;;16.84;45.43
50125;BME280;36023;48.670;6.184;2023-04-08T00:53:30;99397.84;;;16.85;45.27
50125;BME280;36023;48.670;6.184;2023-04-08T00:55:57;99402.22;;;16.84;45.56
50125;BME280;36023;48.670;6.184;2023-04-08T00:58:24;99397.84;;;16.85;45.39
50125;BME280;36023;48.670;6.184;2023-04-08T01:00:59;99407.47;;;16.84;45.50
50125;BME280;36023;48.670;6.184;2023-04-08T01:03:45;99406.63;;;16.84;45.47
50125;BME280;36023;48.670;6.184;2023-04-08T01:06:21;99404.00;;;16.84;45.40
50125;BME280;36023;48.670;6.184;2023-04-08T01:08:55;99404.00;;;16.84;45.75
50125;BME280;36023;48.670;6.184;2023-04-08T01:11:26;99401.44;;;16.82;45.68
50125;BME280;36023;48.670;6.184;2023-04-08T01:13:53;99407.53;;;16.83;45.56
50125;BME280;36023;48.670;6.184;2023-04-08T01:16:24;99405.00;;;16.81;45.87
50125;BME280;36023;48.670;6.184;2023-04-08T01:18:52;99399.75;;;16.81;45.52
50125;BME280;36023;48.670;6.184;2023-04-08T01:21:19;99401.50;;;16.81;45.55
50125;BME280;36023;48.670;6.184;2023-04-08T01:24:15;99399.78;;;16.80;45.75
50125;BME280;36023;48.670;6.184;2023-04-08T01:26:43;99401.50;;;16.81;45.65
50125;BME280;36023;48.670;6.184;2023-04-08T01:29:09;99405.03;;;16.80;45.36
50125;BME280;36023;48.670;6.184;2023-04-08T01:31:38;99400.72;;;16.79;45.59
50125;BME280;36023;48.670;6.184;2023-04-08T01:34:05;99392.00;;;16.78;45.38
50125;BME280;36023;48.670;6.184;2023-04-08T01:36:32;99398.94;;;16.79;45.39
50125;BME280;36023;48.670;6.184;2023-04-08T01:39:01;99398.94;;;16.79;45.52
50125;BME280;36023;48.670;6.184;2023-04-08T01:41:30;99394.56;;;16.80;45.46
50125;BME280;36023;48.670;6.184;2023-04-08T01:43:58;99391.09;;;16.79;45.68
50125;BME280;36023;48.670;6.184;2023-04-08T01:46:26;99392.88;;;16.79;45.71
50125;BME280;36023;48.670;6.184;2023-04-08T01:48:53;99399.78;;;16.80;45.84
50125;BME280;36023;48.670;6.184;2023-04-08T01:51:21;99391.94;;;16.80;45.84
50125;BME280;36023;48.670;6.184;2023-04-08T01:53:47;99395.47;;;16.79;45.61
50125;BME280;36023;48.670;6.184;2023-04-08T01:56:14;99389.41;;;16.78;45.78
50125;BME280;36023;48.670;6.184;2023-04-08T01:58:45;99391.16;;;16.78;46.07
50125;BME280;36023;48.670;6.184;2023-04-08T02:01:16;99392.94;;;16.77;45.83
50125;BME280;36023;48.670;6.184;2023-04-08T02:03:44;99397.31;;;16.77;45.86
50125;BME280;36023;48.670;6.184;2023-04-08T02:06:12;99398.22;;;16.76;45.77
50125;BME280;36023;48.670;6.184;2023-04-08T02:08:39;99400.84;;;16.76;45.77
50125;BME280;36023;48.670;6.184;2023-04-08T02:11:05;99406.06;;;16.76;45.60
50125;BME280;36023;48.670;6.184;2023-04-08T02:13:31;99409.59;;;16.75;45.75
50125;BME280;36023;48.670;6.184;2023-04-08T02:16:12;99406.13;;;16.74;45.67
50125;BME280;36023;48.670;6.184;2023-04-08T02:18:45;99406.19;;;16.73;45.68
50125;BME280;36023;48.670;6.184;2023-04-08T02:21:17;99409.59;;;16.75;45.62
50125;BME280;36023;48.670;6.184;2023-04-08T02:23:48;99415.78;;;16.72;45.55
50125;BME280;36023;48.670;6.184;2023-04-08T02:26:16;99416.63;;;16.73;45.60
50125;BME280;36023;48.670;6.184;2023-04-08T02:28:46;99416.63;;;16.73;45.69
50125;BME280;36023;48.670;6.184;2023-04-08T02:31:15;99416.69;;;16.71;45.59
50125;BME280;36023;48.670;6.184;2023-04-08T02:33:44;99414.16;;;16.69;45.59
50125;BME280;36023;48.670;6.184;2023-04-08T02:36:13;99414.09;;;16.71;45.51
50125;BME280;36023;48.670;6.184;2023-04-08T02:38:40;99416.78;;;16.69;45.43
50125;BME280;36023;48.670;6.184;2023-04-08T02:41:05;99413.31;;;16.69;45.65
50125;BME280;36023;48.670;6.184;2023-04-08T02:43:32;99415.91;;;16.69;45.58
50125;BME280;36023;48.670;6.184;2023-04-08T02:45:59;99426.38;;;16.69;45.53
50125;BME280;36023;48.670;6.184;2023-04-08T02:48:29;99414.19;;;16.68;45.37
50125;BME280;36023;48.670;6.184;2023-04-08T02:50:56;99414.19;;;16.68;45.53
50125;BME280;36023;48.670;6.184;2023-04-08T02:53:22;99419.50;;;16.66;45.46
50125;BME280;36023;48.670;6.184;2023-04-08T02:55:49;99426.41;;;16.67;45.37
50125;BME280;36023;48.670;6.184;2023-04-08T02:58:15;99415.09;;;16.67;45.41
50125;BME280;36023;48.670;6.184;2023-04-08T03:00:41;99418.63;;;16.66;45.44
50125;BME280;36023;48.670;6.184;2023-04-08T03:03:07;99422.09;;;16.66;45.34
50125;BME280;36023;48.670;6.184;2023-04-08T03:05:33;99416.91;;;16.65;45.55
50125;BME280;36023;48.670;6.184;2023-04-08T03:07:59;99426.47;;;16.66;45.59
50125;BME280;36023;48.670;6.184;2023-04-08T03:10:26;99420.41;;;16.65;45.08
50125;BME280;36023;48.670;6.184;2023-04-08T03:12:52;99423.06;;;16.64;45.48
50125;BME280;36023;48.670;6.184;2023-04-08T03:15:18;99417.81;;;16.64;45.49
50125;BME280;36023;48.670;6.184;2023-04-08T03:17:43;99427.38;;;16.65;45.45
50125;BME280;36023;48.670;6.184;2023-04-08T03:20:09;99419.59;;;16.63;45.20
50125;BME280;36023;48.670;6.184;2023-04-08T03:22:35;99423.97;;;16.63;45.41
50125;BME280;36023;48.670;6.184;2023-04-08T03:25:01;99428.34;;;16.62;45.39
50125;BME280;36023;48.670;6.184;2023-04-08T03:27:27;99432.72;;;16.62;45.42
50125;BME280;36023;48.670;6.184;2023-04-08T03:29:54;99430.97;;;16.62;45.42
50125;BME280;36023;48.670;6.184;2023-04-08T03:32:23;99424.03;;;16.61;45.43
50125;BME280;36023;48.670;6.184;2023-04-08T03:34:51;99431.03;;;16.61;45.11
50125;BME280;36023;48.670;6.184;2023-04-08T03:37:18;99431.88;;;16.61;45.19
50125;BME280;36023;48.670;6.184;2023-04-08T03:39:45;99432.78;;;16.60;45.19
50125;BME280;36023;48.670;6.184;2023-04-08T03:42:11;99436.31;;;16.59;45.27
50125;BME280;36023;48.670;6.184;2023-04-08T03:44:37;99428.47;;;16.59;45.25
50125;BME280;36023;48.670;6.184;2023-04-08T03:47:02;99431.09;;;16.59;45.35
50125;BME280;36023;48.670;6.184;2023-04-08T03:49:28;99438.94;;;16.59;45.23
50125;BME280;36023;48.670;6.184;2023-04-08T03:51:54;99437.25;;;16.58;45.25
50125;BME280;36023;48.670;6.184;2023-04-08T03:54:20;99432.00;;;16.58;44.75
50125;BME280;36023;48.670;6.184;2023-04-08T03:56:48;99432.91;;;16.57;45.14
50125;BME280;36023;48.670;6.184;2023-04-08T03:59:14;99435.50;;;16.57;44.79
50125;BME280;36023;48.670;6.184;2023-04-08T04:01:41;99438.13;;;16.57;45.16
50125;BME280;36023;48.670;6.184;2023-04-08T04:04:07;99433.78;;;16.58;45.06
50125;BME280;36023;48.670;6.184;2023-04-08T04:06:33;99434.66;;;16.57;45.25
50125;BME280;36023;48.670;6.184;2023-04-08T04:08:58;99425.97;;;16.56;44.98
50125;BME280;36023;48.670;6.184;2023-04-08T04:11:25;99430.28;;;16.57;45.02
50125;BME280;36023;48.670;6.184;2023-04-08T04:13:51;99431.19;;;16.56;45.03
50125;BME280;36023;48.670;6.184;2023-04-08T04:16:17;99439.97;;;16.55;45.10
50125;BME280;36023;48.670;6.184;2023-04-08T04:18:42;99437.34;;;16.55;45.03
50125;BME280;36023;48.670;6.184;2023-04-08T04:21:08;99439.09;;;16.55;45.11
50125;BME280;36023;48.670;6.184;2023-04-08T04:23:34;99446.03;;;16.56;45.04
50125;BME280;36023;48.670;6.184;2023-04-08T04:26:00;99444.34;;;16.55;45.08
50125;BME280;36023;48.670;6.184;2023-04-08T04:28:26;99447.00;;;16.53;44.99
50125;BME280;36023;48.670;6.184;2023-04-08T04:30:53;99449.63;;;16.53;44.71
50125;BME280;36023;48.670;6.184;2023-04-08T04:33:18;99454.00;;;16.53;44.75
50125;BME280;36023;48.670;6.184;2023-04-08T04:35:44;99446.22;;;16.51;44.64
50125;BME280;36023;48.670;6.184;2023-04-08T04:38:10;99454.94;;;16.52;44.80
50125;BME280;36023;48.670;6.184;2023-04-08T04:40:37;99458.44;;;16.51;44.67
50125;BME280;36023;48.670;6.184;2023-04-08T04:43:04;99455.84;;;16.51;44.65
50125;BME280;36023;48.670;6.184;2023-04-08T04:45:30;99450.59;;;16.51;44.77
50125;BME280;36023;48.670;6.184;2023-04-08T04:47:56;99460.22;;;16.50;44.93
50125;BME280;36023;48.670;6.184;2023-04-08T04:50:23;99456.72;;;16.50;44.78
50125;BME280;36023;48.670;6.184;2023-04-08T04:52:49;99461.94;;;16.50;44.80
50125;BME280;36023;48.670;6.184;2023-04-08T04:55:16;99466.31;;;16.49;44.80
50125;BME280;36023;48.670;6.184;2023-04-08T04:57:43;99472.41;;;16.50;44.77
50125;BME280;36023;48.670;6.184;2023-04-08T05:00:09;99459.41;;;16.48;44.70
50125;BME280;36023;48.670;6.184;2023-04-08T05:02:35;99462.00;;;16.48;44.56
50125;BME280;36023;48.670;6.184;2023-04-08T05:05:01;99464.63;;;16.48;44.60
50125;BME280;36023;48.670;6.184;2023-04-08T05:07:26;99467.25;;;16.48;44.46
50125;BME280;36023;48.670;6.184;2023-04-08T05:09:53;99469.91;;;16.47;44.69
50125;BME280;36023;48.670;6.184;2023-04-08T05:12:19;99472.53;;;16.47;44.94
50125;BME280;36023;48.670;6.184;2023-04-08T05:14:46;99476.00;;;16.47;44.43
50125;BME280;36023;48.670;6.184;2023-04-08T05:17:12;99473.44;;;16.46;44.54
50125;BME280;36023;48.670;6.184;2023-04-08T05:19:37;99474.31;;;16.46;44.32
50125;BME280;36023;48.670;6.184;2023-04-08T05:22:03;99474.38;;;16.44;44.67
50125;BME280;36023;48.670;6.184;2023-04-08T05:24:28;99480.44;;;16.45;44.52
50125;BME280;36023;48.670;6.184;2023-04-08T05:26:54;99476.13;;;16.44;44.55
50125;BME280;36023;48.670;6.184;2023-04-08T05:29:23;99478.69;;;16.46;44.41
50125;BME280;36023;48.670;6.184;2023-04-08T05:31:49;99480.44;;;16.45;44.48
50125;BME280;36023;48.670;6.184;2023-04-08T05:34:14;99483.13;;;16.43;44.52
50125;BME280;36023;48.670;6.184;2023-04-08T05:36:43;99488.34;;;16.43;44.32
50125;BME280;36023;48.670;6.184;2023-04-08T05:39:09;99488.34;;;16.43;44.35
50125;BME280;36023;48.670;6.184;2023-04-08T05:41:35;99484.03;;;16.42;44.36
50125;BME280;36023;48.670;6.184;2023-04-08T05:44:02;99482.28;;;16.43;44.34
50125;BME280;36023;48.670;6.184;2023-04-08T05:46:27;99480.56;;;16.42;44.26
50125;BME280;36023;48.670;6.184;2023-04-08T05:48:54;99484.91;;;16.41;44.32
50125;BME280;36023;48.670;6.184;2023-04-08T05:51:19;99497.09;;;16.42;44.19
50125;BME280;36023;48.670;6.184;2023-04-08T05:53:46;99498.00;;;16.41;44.42
50125;BME280;36023;48.670;6.184;2023-04-08T05:56:12;99508.44;;;16.41;44.35
50125;BME280;36023;48.670;6.184;2023-04-08T05:58:39;99502.38;;;16.41;43.89
50125;BME280;36023;48.670;6.184;2023-04-08T06:01:04;99508.44;;;16.41;44.12
50125;BME280;36023;48.670;6.184;2023-04-08T06:03:31;99508.44;;;16.41;44.39
50125;BME280;36023;48.670;6.184;2023-04-08T06:05:57;99511.94;;;16.42;44.06
50125;BME280;36023;48.670;6.184;2023-04-08T06:08:23;99514.59;;;16.40;44.12
50125;BME280;36023;48.670;6.184;2023-04-08T06:10:50;99524.13;;;16.41;44.21
50125;BME280;36023;48.670;6.184;2023-04-08T06:13:16;99520.66;;;16.41;44.29
50125;BME280;36023;48.670;6.184;2023-04-08T06:15:42;99523.28;;;16.41;44.20
50125;BME280;36023;48.670;6.184;2023-04-08T06:18:08;99526.81;;;16.40;44.27
50125;BME280;36023;48.670;6.184;2023-04-08T06:20:34;99518.13;;;16.39;44.31
50125;BME280;36023;48.670;6.184;2023-04-08T06:23:00;99519.81;;;16.40;44.28
50125;BME280;36023;48.670;6.184;2023-04-08T06:25:26;99521.56;;;16.40;44.09
50125;BME280;36023;48.670;6.184;2023-04-08T06:27:52;99528.56;;;16.39;44.24
50125;BME280;36023;48.670;6.184;2023-04-08T06:30:18;99525.09;;;16.39;44.13
50125;BME280;36023;48.670;6.184;2023-04-08T06:32:44;99518.19;;;16.38;44.09
50125;BME280;36023;48.670;6.184;2023-04-08T06:35:12;99529.47;;;16.38;44.20
50125;BME280;36023;48.670;6.184;2023-04-08T06:37:37;99532.09;;;16.38;44.01
50125;BME280;36023;48.670;6.184;2023-04-08T06:40:05;99529.53;;;16.37;44.08
50125;BME280;36023;48.670;6.184;2023-04-08T06:42:31;99545.22;;;16.37;43.94
50125;BME280;36023;48.670;6.184;2023-04-08T06:45:15;99537.38;;;16.37;43.97
50125;BME280;36023;48.670;6.184;2023-04-08T06:47:41;99533.91;;;16.36;44.08
50125;BME280;36023;48.670;6.184;2023-04-08T06:50:07;99538.31;;;16.36;44.12
50125;BME280;36023;48.670;6.184;2023-04-08T06:52:33;99535.69;;;16.36;43.95
50125;BME280;36023;48.670;6.184;2023-04-08T06:54:58;99536.59;;;16.35;44.05
50125;BME280;36023;48.670;6.184;2023-04-08T06:57:25;99536.59;;;16.35;43.89
50125;BME280;36023;48.670;6.184;2023-04-08T06:59:52;99533.97;;;16.35;43.99
50125;BME280;36023;48.670;6.184;2023-04-08T07:02:18;99536.59;;;16.35;43.90
50125;BME280;36023;48.670;6.184;2023-04-08T07:04:44;99536.63;;;16.33;44.00
50125;BME280;36023;48.670;6.184;2023-04-08T07:07:10;99542.69;;;16.34;44.10
50125;BME280;36023;48.670;6.184;2023-04-08T07:09:35;99541.84;;;16.33;43.95
50125;BME280;36023;48.670;6.184;2023-04-08T07:12:02;99545.38;;;16.32;43.94
50125;BME280;36023;48.670;6.184;2023-04-08T07:14:29;99549.69;;;16.33;43.83
50125;BME280;36023;48.670;6.184;2023-04-08T07:16:56;99552.38;;;16.32;44.17
50125;BME280;36023;48.670;6.184;2023-04-08T07:19:22;99555.84;;;16.32;43.80
50125;BME280;36023;48.670;6.184;2023-04-08T07:21:49;99548.06;;;16.31;44.00
50125;BME280;36023;48.670;6.184;2023-04-08T07:24:15;99557.59;;;16.32;43.94
50125;BME280;36023;48.670;6.184;2023-04-08T07:26:40;99548.97;;;16.30;44.02
50125;BME280;36023;48.670;6.184;2023-04-08T07:29:07;99549.81;;;16.30;44.08
50125;BME280;36023;48.670;6.184;2023-04-08T07:31:33;99549.81;;;16.30;44.05
50125;BME280;36023;48.670;6.184;2023-04-08T07:33:58;99555.91;;;16.31;44.06
50125;BME280;36023;48.670;6.184;2023-04-08T07:36:24;99548.13;;;16.29;43.84
50125;BME280;36023;48.670;6.184;2023-04-08T07:38:50;99555.09;;;16.29;44.01
50125;BME280;36023;48.670;6.184;2023-04-08T07:41:16;99551.63;;;16.28;44.01
50125;BME280;36023;48.670;6.184;2023-04-08T07:43:42;99551.59;;;16.30;43.93
50125;BME280;36023;48.670;6.184;2023-04-08T07:46:09;99552.50;;;16.29;44.00
50125;BME280;36023;48.670;6.184;2023-04-08T07:48:34;99556.81;;;16.30;44.04
50125;BME280;36023;48.670;6.184;2023-04-08T07:51:04;99556.88;;;16.28;44.15
50125;BME280;36023;48.670;6.184;2023-04-08T07:53:30;99560.34;;;16.29;43.85
50125;BME280;36023;48.670;6.184;2023-04-08T07:55:57;99565.56;;;16.29;44.02
50125;BME280;36023;48.670;6.184;2023-04-08T07:58:23;99564.72;;;16.28;43.89
50125;BME280;36023;48.670;6.184;2023-04-08T08:00:52;99555.16;;;16.27;44.15
50125;BME280;36023;48.670;6.184;2023-04-08T08:03:17;99556.88;;;16.28;44.14
50125;BME280;36023;48.670;6.184;2023-04-08T08:05:43;99566.47;;;16.28;44.15
50125;BME280;36023;48.670;6.184;2023-04-08T08:08:09;99566.47;;;16.28;44.14
50125;BME280;36023;48.670;6.184;2023-04-08T08:10:39;99578.69;;;16.27;44.13
50125;BME280;36023;48.670;6.184;2023-04-08T08:13:05;99579.53;;;16.28;44.16
50125;BME280;36023;48.670;6.184;2023-04-08T08:15:32;99579.53;;;16.28;44.21
50125;BME280;36023;48.670;6.184;2023-04-08T08:17:58;99577.78;;;16.28;44.21
50125;BME280;36023;48.670;6.184;2023-04-08T08:20:25;99580.41;;;16.28;44.03
50125;BME280;36023;48.670;6.184;2023-04-08T08:22:51;99581.31;;;16.27;43.96
50125;BME280;36023;48.670;6.184;2023-04-08T08:25:17;99583.06;;;16.27;44.06
50125;BME280;36023;48.670;6.184;2023-04-08T08:27:43;99584.78;;;16.26;43.66
50125;BME280;36023;48.670;6.184;2023-04-08T08:30:10;99585.72;;;16.25;43.49
50125;BME280;36023;48.670;6.184;2023-04-08T08:32:36;99587.47;;;16.25;43.59
50125;BME280;36023;48.670;6.184;2023-04-08T08:35:02;99580.53;;;16.24;43.45
50125;BME280;36023;48.670;6.184;2023-04-08T08:37:28;99586.69;;;16.23;43.46
50125;BME280;36023;48.670;6.184;2023-04-08T08:39:54;99591.06;;;16.22;43.56
50125;BME280;36023;48.670;6.184;2023-04-08T08:42:24;99588.44;;;16.22;43.63
50125;BME280;36023;48.670;6.184;2023-04-08T08:44:50;99589.34;;;16.21;43.57
50125;BME280;36023;48.670;6.184;2023-04-08T08:47:16;99595.38;;;16.23;43.62
50125;BME280;36023;48.670;6.184;2023-04-08T08:49:43;99600.59;;;16.23;43.48
50125;BME280;36023;48.670;6.184;2023-04-08T08:52:09;99596.28;;;16.22;43.34
50125;BME280;36023;48.670;6.184;2023-04-08T08:54:36;99597.19;;;16.21;43.17
50125;BME280;36023;48.670;6.184;2023-04-08T08:57:03;99593.72;;;16.21;43.19
50125;BME280;36023;48.670;6.184;2023-04-08T08:59:30;99596.34;;;16.21;43.16
50125;BME280;36023;48.670;6.184;2023-04-08T09:01:55;99597.25;;;16.20;43.16
50125;BME280;36023;48.670;6.184;2023-04-08T09:04:21;99596.41;;;16.19;43.04
50125;BME280;36023;48.670;6.184;2023-04-08T09:06:50;99599.00;;;16.19;43.01
50125;BME280;36023;48.670;6.184;2023-04-08T09:09:48;99585.97;;;16.17;43.21
50125;BME280;36023;48.670;6.184;2023-04-08T09:12:14;99596.41;;;16.19;43.22
50125;BME280;36023;48.670;6.184;2023-04-08T09:14:41;99595.56;;;16.19;43.17
50125;BME280;36023;48.670;6.184;2023-04-08T09:17:07;99591.19;;;16.17;43.04
50125;BME280;36023;48.670;6.184;2023-04-08T09:19:32;99599.88;;;16.18;43.34
50125;BME280;36023;48.670;6.184;2023-04-08T09:22:09;99587.72;;;16.19;43.25
50125;BME280;36023;48.670;6.184;2023-04-08T09:24:36;99602.50;;;16.18;43.31
50125;BME280;36023;48.670;6.184;2023-04-08T09:27:03;99602.50;;;16.18;43.14
50125;BME280;36023;48.670;6.184;2023-04-08T09:29:29;99605.13;;;16.18;43.28
50125;BME280;36023;48.670;6.184;2023-04-08T09:31:56;99607.78;;;16.16;43.21
50125;BME280;36023;48.670;6.184;2023-04-08T09:34:22;99602.56;;;16.16;43.33
50125;BME280;36023;48.670;6.184;2023-04-08T09:36:49;99606.03;;;16.17;43.22
50125;BME280;36023;48.670;6.184;2023-04-08T09:39:16;99610.41;;;16.16;43.17
50125;BME280;36023;48.670;6.184;2023-04-08T09:41:43;99601.66;;;16.17;43.24
50125;BME280;36023;48.670;6.184;2023-04-08T09:44:10;99599.03;;;16.17;43.46
50125;BME280;36023;48.670;6.184;2023-04-08T09:49:33;99603.41;;;16.17;43.26
50125;BME280;36023;48.670;6.184;2023-04-08T09:52:32;99607.72;;;16.18;43.42
50125;BME280;36023;48.670;6.184;2023-04-08T09:55:02;99601.72;;;16.16;43.51
50125;BME280;36023;48.670;6.184;2023-04-08T10:00:22;99605.19;;;16.16;43.51
50125;BME280;36023;48.670;6.184;2023-04-08T10:03:26;99608.63;;;16.19;43.59
50125;BME280;36023;48.670;6.184;2023-04-08T10:05:54;99607.72;;;16.18;43.50
50125;BME280;36023;48.670;6.184;2023-04-08T10:08:24;99601.66;;;16.17;43.84
50125;BME280;36023;48.670;6.184;2023-04-08T10:10:53;99609.47;;;16.19;44.07
50125;BME280;36023;48.670;6.184;2023-04-08T10:13:19;99614.56;;;16.22;44.24
50125;BME280;36023;48.670;6.184;2023-04-08T10:15:46;99605.75;;;16.25;44.38
50125;BME280;36023;48.670;6.184;2023-04-08T10:23:05;99606.13;;;16.39;44.43
50125;BME280;36023;48.670;6.184;2023-04-08T10:25:44;99602.53;;;16.43;44.30
50125;BME280;36023;48.670;6.184;2023-04-08T10:38:18;99599.72;;;16.73;46.41
50125;BME280;36023;48.670;6.184;2023-04-08T10:40:47;99601.25;;;16.78;46.87
50125;BME280;36023;48.670;6.184;2023-04-08T10:43:14;99599.41;;;16.82;46.97
50125;BME280;36023;48.670;6.184;2023-04-08T10:45:40;99604.44;;;16.86;47.42
50125;BME280;36023;48.670;6.184;2023-04-08T10:48:25;99598.28;;;16.89;47.62
50125;BME280;36023;48.670;6.184;2023-04-08T10:53:28;99601.63;;;16.92;48.04
50125;BME280;36023;48.670;6.184;2023-04-08T10:58:30;99603.25;;;16.95;48.19
50125;BME280;36023;48.670;6.184;2023-04-08T11:01:07;99601.47;;;16.95;48.60
50125;BME280;36023;48.670;6.184;2023-04-08T11:03:34;99585.75;;;16.97;48.25
50125;BME280;36023;48.670;6.184;2023-04-08T11:06:00;99595.31;;;16.98;48.32
50125;BME280;36023;48.670;6.184;2023-04-08T11:08:28;99607.47;;;16.99;48.48
50125;BME280;36023;48.670;6.184;2023-04-08T11:10:57;99594.38;;;16.99;48.53
50125;BME280;36023;48.670;6.184;2023-04-08T11:13:25;99595.25;;;16.99;48.45
50125;BME280;36023;48.670;6.184;2023-04-08T11:15:55;99596.88;;;17.02;48.85
50125;BME280;36023;48.670;6.184;2023-04-08T11:18:21;99596.88;;;17.02;48.65
50125;BME280;36023;48.670;6.184;2023-04-08T11:20:50;99601.19;;;17.03;48.53
50125;BME280;36023;48.670;6.184;2023-04-08T11:23:16;99593.31;;;17.05;48.64
50125;BME280;36023;48.670;6.184;2023-04-08T11:25:43;99601.16;;;17.05;48.71
50125;BME280;36023;48.670;6.184;2023-04-08T11:28:10;99591.47;;;17.07;48.67
50125;BME280;36023;48.670;6.184;2023-04-08T11:30:38;99591.47;;;17.07;48.72
50125;BME280;36023;48.670;6.184;2023-04-08T11:33:06;99588.78;;;17.08;48.56
50125;BME280;36023;48.670;6.184;2023-04-08T11:35:32;99593.13;;;17.09;48.77
50125;BME280;36023;48.670;6.184;2023-04-08T11:37:58;99586.06;;;17.11;48.83
50125;BME280;36023;48.670;6.184;2023-04-08T11:40:24;99585.94;;;17.14;48.90
50125;BME280;36023;48.670;6.184;2023-04-08T11:42:52;99590.28;;;17.15;48.99
50125;BME280;36023;48.670;6.184;2023-04-08T11:45:19;99585.81;;;17.17;49.07
50125;BME280;36023;48.670;6.184;2023-04-08T11:47:48;99587.50;;;17.20;49.21
50125;BME280;36023;48.670;6.184;2023-04-08T11:50:22;99588.28;;;17.22;49.49
50125;BME280;36023;48.670;6.184;2023-04-08T11:52:51;99583.81;;;17.24;49.60
50125;BME280;36023;48.670;6.184;2023-04-08T11:55:30;99579.38;;;17.26;49.56
50125;BME280;36023;48.670;6.184;2023-04-08T11:58:03;99576.66;;;17.29;49.89
50125;BME280;36023;48.670;6.184;2023-04-08T12:00:30;99570.44;;;17.32;50.06
50125;BME280;36023;48.670;6.184;2023-04-08T12:02:57;99578.16;;;17.35;50.46
50125;BME280;36023;48.670;6.184;2023-04-08T12:05:23;99575.44;;;17.38;50.78
50125;BME280;36023;48.670;6.184;2023-04-08T12:07:49;99570.13;;;17.39;50.77
50125;BME280;36023;48.670;6.184;2023-04-08T12:10:15;99573.59;;;17.40;50.93
50125;BME280;36023;48.670;6.184;2023-04-08T12:12:41;99578.75;;;17.41;50.98
50125;BME280;36023;48.670;6.184;2023-04-08T12:15:07;99569.16;;;17.42;51.10
50125;BME280;36023;48.670;6.184;2023-04-08T12:17:34;99569.16;;;17.42;50.99
50125;BME280;36023;48.670;6.184;2023-04-08T12:19:59;99564.81;;;17.41;50.93
50125;BME280;36023;48.670;6.184;2023-04-08T12:22:26;99569.16;;;17.42;51.23
50125;BME280;36023;48.670;6.184;2023-04-08T12:24:51;99567.44;;;17.41;50.84
50125;BME280;36023;48.670;6.184;2023-04-08T12:27:17;99565.75;;;17.40;50.82
50125;BME280;36023;48.670;6.184;2023-04-08T12:29:43;99567.56;;;17.38;50.87
50125;BME280;36023;48.670;6.184;2023-04-08T12:32:08;99560.63;;;17.37;50.82
50125;BME280;36023;48.670;6.184;2023-04-08T12:34:34;99560.75;;;17.34;50.84
50125;BME280;36023;48.670;6.184;2023-04-08T12:37:00;99567.81;;;17.32;50.69
50125;BME280;36023;48.670;6.184;2023-04-08T12:39:26;99564.41;;;17.30;50.70
50125;BME280;36023;48.670;6.184;2023-04-08T12:41:53;99564.47;;;17.28;50.66
50125;BME280;36023;48.670;6.184;2023-04-08T12:44:18;99560.19;;;17.25;50.57
50125;BME280;36023;48.670;6.184;2023-04-08T12:46:45;99558.56;;;17.23;50.54
50125;BME280;36023;48.670;6.184;2023-04-08T12:49:10;99562.09;;;17.22;50.07
50125;BME280;36023;48.670;6.184;2023-04-08T12:51:37;99560.41;;;17.21;50.32
50125;BME280;36023;48.670;6.184;2023-04-08T12:54:03;99556.97;;;17.19;50.27
50125;BME280;36023;48.670;6.184;2023-04-08T12:56:30;99560.50;;;17.18;50.23
50125;BME280;36023;48.670;6.184;2023-04-08T12:58:58;99555.25;;;17.18;50.18
50125;BME280;36023;48.670;6.184;2023-04-08T13:01:25;99561.41;;;17.17;50.05
50125;BME280;36023;48.670;6.184;2023-04-08T13:03:51;99554.47;;;17.16;49.86
50125;BME280;36023;48.670;6.184;2023-04-08T13:06:18;99554.53;;;17.14;49.96
50125;BME280;36023;48.670;6.184;2023-04-08T13:08:44;99544.16;;;17.13;49.75
50125;BME280;36023;48.670;6.184;2023-04-08T13:11:12;99552.00;;;17.13;49.56
50125;BME280;36023;48.670;6.184;2023-04-08T13:13:37;99551.19;;;17.11;49.62
50125;BME280;36023;48.670;6.184;2023-04-08T13:16:04;99546.00;;;17.09;49.54
50125;BME280;36023;48.670;6.184;2023-04-08T13:18:29;99547.72;;;17.10;49.39
50125;BME280;36023;48.670;6.184;2023-04-08T13:20:56;99546.00;;;17.09;49.44
50125;BME280;36023;48.670;6.184;2023-04-08T13:23:22;99543.47;;;17.08;49.37
50125;BME280;36023;48.670;6.184;2023-04-08T13:25:49;99540.84;;;17.08;49.46
50125;BME280;36023;48.670;6.184;2023-04-08T13:28:15;99541.75;;;17.07;49.10